Time;durP1;ratioP1;P1;durP2;ratioP2;P2;SDS_P1;SDS_P2;PMS_P1;PMS_P2;Temp;Humidity;BMP_temperature;BMP_pressure;BME280_temperature;BME280_humidity;BME280_pressure;Samples;Min_cycle;Max_cycle;Signal;HPM_P1;HPM_P2
2023/07/03 00:00:11;;;;;;;15.63;7.18;;;17.50;99.90;;;;;;5055026;28;20052;-72
2023/07/03 00:02:38;;;;;;;18.08;7.40;;;17.50;99.90;;;;;;5050339;28;20052;-73
2023/07/03 00:05:06;;;;;;;17.00;6.55;;;17.50;99.90;;;;;;5048634;28;20856;-71
2023/07/03 00:07:33;;;;;;;17.45;6.85;;;17.50;99.90;;;;;;5025444;28;20131;-72
2023/07/03 00:09:58;;;;;;;16.30;6.78;;;17.40;99.90;;;;;;5035530;28;20040;-72
2023/07/03 00:12:25;;;;;;;12.40;6.47;;;17.40;99.90;;;;;;5050424;28;20983;-71
2023/07/03 00:14:51;;;;;;;16.45;6.25;;;17.40;99.90;;;;;;5054499;28;20052;-71
2023/07/03 00:17:16;;;;;;;15.90;6.28;;;17.40;99.90;;;;;;5040452;28;20087;-72
2023/07/03 00:19:42;;;;;;;16.55;6.80;;;17.40;99.90;;;;;;5036359;28;20049;-71
2023/07/03 00:22:08;;;;;;;18.02;7.05;;;17.40;99.90;;;;;;5054111;28;20562;-72
2023/07/03 00:24:34;;;;;;;17.33;6.90;;;17.40;99.90;;;;;;5048532;28;20519;-71
2023/07/03 00:27:00;;;;;;;20.15;6.55;;;17.40;99.90;;;;;;5036610;28;20087;-72
2023/07/03 00:29:30;;;;;;;18.40;6.47;;;17.30;99.90;;;;;;5033677;28;20044;-71
2023/07/03 00:31:57;;;;;;;16.80;6.50;;;17.40;99.90;;;;;;5029772;28;20045;-71
2023/07/03 00:34:23;;;;;;;15.73;6.40;;;17.30;99.90;;;;;;5027526;28;20444;-72
2023/07/03 00:36:48;;;;;;;18.38;6.65;;;17.40;99.90;;;;;;5046428;28;20044;-71
2023/07/03 00:39:14;;;;;;;16.20;6.15;;;17.40;99.90;;;;;;5053134;28;20869;-72
2023/07/03 00:41:41;;;;;;;21.25;6.82;;;17.40;99.90;;;;;;5035568;28;20067;-71
2023/07/03 00:44:18;;;;;;;16.35;6.38;;;17.40;99.90;;;;;;5051259;28;20153;-72
2023/07/03 00:46:48;;;;;;;17.00;6.47;;;17.30;99.90;;;;;;5038992;28;20631;-72
2023/07/03 00:49:14;;;;;;;17.17;6.32;;;17.30;99.90;;;;;;5031072;28;20124;-72
2023/07/03 00:51:46;;;;;;;15.85;6.55;;;17.40;99.90;;;;;;5037580;28;20101;-71
2023/07/03 00:54:12;;;;;;;17.63;6.53;;;17.40;99.90;;;;;;5054019;28;20048;-72
2023/07/03 00:56:39;;;;;;;17.58;7.32;;;17.40;99.90;;;;;;5056204;28;20048;-73
2023/07/03 00:59:05;;;;;;;17.77;6.53;;;17.30;99.90;;;;;;5044583;28;20068;-71
2023/07/03 01:02:01;;;;;;;16.95;6.63;;;17.30;99.90;;;;;;5051227;28;20040;-72
2023/07/03 01:04:35;;;;;;;14.38;6.15;;;17.30;99.90;;;;;;5047876;28;20086;-72
2023/07/03 01:07:07;;;;;;;17.15;7.07;;;17.30;99.90;;;;;;5032828;28;20055;-72
2023/07/03 01:09:47;;;;;;;17.60;6.75;;;17.30;99.90;;;;;;5029215;28;20041;-71
2023/07/03 01:12:14;;;;;;;18.60;6.70;;;17.20;99.90;;;;;;5046369;28;20053;-71
2023/07/03 01:14:43;;;;;;;19.55;6.80;;;17.20;99.90;;;;;;5038779;28;20047;-72
2023/07/03 01:17:10;;;;;;;22.20;7.07;;;17.20;99.90;;;;;;5033212;28;20063;-72
2023/07/03 01:19:40;;;;;;;18.48;6.43;;;17.20;99.90;;;;;;5019437;28;20608;-72
2023/07/03 01:22:28;;;;;;;16.15;6.47;;;17.20;99.90;;;;;;5050428;28;20053;-72
2023/07/03 01:24:59;;;;;;;21.33;6.97;;;17.20;99.90;;;;;;5043483;28;20098;-71
2023/07/03 01:27:30;;;;;;;17.50;6.13;;;17.20;99.90;;;;;;5037472;28;20051;-71
2023/07/03 01:29:57;;;;;;;16.77;5.82;;;17.20;99.90;;;;;;5033184;28;20044;-71
2023/07/03 01:32:25;;;;;;;20.95;6.80;;;17.20;99.90;;;;;;5050622;28;20048;-73
2023/07/03 01:34:53;;;;;;;19.90;6.75;;;17.20;99.90;;;;;;5029436;28;20104;-72
2023/07/03 01:37:22;;;;;;;19.33;7.03;;;17.20;99.90;;;;;;5028943;28;20495;-72
2023/07/03 01:39:49;;;;;;;16.52;5.95;;;17.20;99.90;;;;;;5047067;28;20127;-72
2023/07/03 01:42:15;;;;;;;20.33;7.10;;;17.20;99.90;;;;;;5053216;28;20043;-72
2023/07/03 01:44:41;;;;;;;16.80;6.40;;;17.20;99.90;;;;;;5032340;28;20048;-73
2023/07/03 01:47:09;;;;;;;20.30;6.30;;;17.20;99.90;;;;;;5052245;28;20052;-71
2023/07/03 01:49:35;;;;;;;19.15;6.53;;;17.20;99.90;;;;;;5033336;28;20079;-73
2023/07/03 01:52:19;;;;;;;19.73;6.20;;;17.20;99.90;;;;;;5027441;28;20051;-72
2023/07/03 01:54:55;;;;;;;21.15;6.43;;;17.10;99.90;;;;;;5028550;28;20867;-72
2023/07/03 01:57:35;;;;;;;20.63;6.65;;;17.10;99.90;;;;;;5028271;28;20049;-72
2023/07/03 02:00:04;;;;;;;20.98;6.65;;;17.10;99.90;;;;;;5031010;28;20118;-72
2023/07/03 02:02:30;;;;;;;19.67;6.05;;;17.10;99.90;;;;;;5029769;28;20040;-71
2023/07/03 02:05:17;;;;;;;23.58;6.70;;;17.10;99.90;;;;;;5033913;28;20044;-71
2023/07/03 02:07:47;;;;;;;21.60;7.05;;;17.10;99.90;;;;;;5051550;28;20380;-72
2023/07/03 02:10:13;;;;;;;20.38;6.43;;;17.10;99.90;;;;;;5052188;28;20041;-71
2023/07/03 02:12:43;;;;;;;20.00;6.57;;;17.10;99.90;;;;;;5044915;28;20712;-71
2023/07/03 02:15:10;;;;;;;20.70;6.40;;;17.10;99.90;;;;;;5049913;28;20091;-71
2023/07/03 02:17:36;;;;;;;24.10;6.75;;;17.10;99.90;;;;;;5031447;28;20056;-71
2023/07/03 02:20:02;;;;;;;20.67;6.50;;;17.10;99.90;;;;;;5025635;28;20052;-71
2023/07/03 02:22:28;;;;;;;20.13;6.28;;;17.10;99.90;;;;;;5038149;28;20049;-72
2023/07/03 02:24:53;;;;;;;20.85;6.40;;;17.10;99.90;;;;;;5052344;28;20102;-72
2023/07/03 02:27:19;;;;;;;19.17;6.20;;;17.10;99.90;;;;;;5033146;28;20735;-72
2023/07/03 02:29:46;;;;;;;22.20;6.80;;;17.10;99.90;;;;;;5055948;28;20468;-72
2023/07/03 02:32:12;;;;;;;19.60;6.78;;;17.10;99.90;;;;;;5048400;28;21293;-71
2023/07/03 02:34:39;;;;;;;25.45;6.65;;;17.10;99.90;;;;;;5029818;28;20097;-71
2023/07/03 02:37:04;;;;;;;22.60;6.80;;;17.10;99.90;;;;;;5044892;28;20056;-71
2023/07/03 02:39:30;;;;;;;20.63;6.10;;;17.10;99.90;;;;;;5058975;28;20045;-72
2023/07/03 02:41:56;;;;;;;21.50;6.28;;;17.10;99.90;;;;;;5047863;28;20041;-72
2023/07/03 02:44:22;;;;;;;22.73;6.72;;;17.10;99.90;;;;;;5048088;28;20097;-72
2023/07/03 02:46:48;;;;;;;21.65;6.35;;;17.10;99.90;;;;;;5032193;28;20387;-71
2023/07/03 02:49:13;;;;;;;21.50;6.28;;;17.00;99.90;;;;;;5048209;28;20127;-71
2023/07/03 02:51:39;;;;;;;22.15;6.85;;;17.00;99.90;;;;;;5035827;28;20063;-72
2023/07/03 02:54:05;;;;;;;20.70;5.85;;;17.10;99.90;;;;;;5054269;28;20045;-71
2023/07/03 02:56:30;;;;;;;23.75;7.10;;;17.00;99.90;;;;;;5039187;28;20040;-72
2023/07/03 02:58:56;;;;;;;24.38;6.72;;;17.00;99.90;;;;;;5055544;28;20052;-72
2023/07/03 03:01:22;;;;;;;19.75;6.63;;;17.00;99.90;;;;;;5051061;28;20128;-71
2023/07/03 03:03:47;;;;;;;19.35;5.78;;;16.90;99.90;;;;;;5049041;28;20404;-72
2023/07/03 03:06:13;;;;;;;22.58;6.60;;;17.00;99.90;;;;;;5056716;28;20397;-71
2023/07/03 03:08:39;;;;;;;24.88;6.93;;;16.90;99.90;;;;;;5041697;28;20051;-71
2023/07/03 03:11:05;;;;;;;22.48;6.30;;;16.90;99.90;;;;;;5037519;28;20048;-72
2023/07/03 03:13:31;;;;;;;23.33;6.30;;;16.90;99.90;;;;;;5056583;28;20048;-71
2023/07/03 03:15:57;;;;;;;21.25;6.72;;;16.90;99.90;;;;;;5036676;28;20893;-71
2023/07/03 03:18:23;;;;;;;23.00;6.70;;;16.80;99.90;;;;;;5051197;28;20041;-73
2023/07/03 03:20:49;;;;;;;21.63;6.32;;;16.80;99.90;;;;;;5054997;28;20091;-71
2023/07/03 03:23:14;;;;;;;22.48;6.18;;;16.80;99.90;;;;;;5058692;28;20045;-72
2023/07/03 03:25:40;;;;;;;17.40;5.95;;;16.70;99.90;;;;;;5056385;28;20487;-72
2023/07/03 03:28:06;;;;;;;16.75;5.78;;;16.70;99.90;;;;;;5033632;28;20095;-71
2023/07/03 03:30:32;;;;;;;19.52;5.57;;;16.60;99.90;;;;;;5052894;28;20399;-71
2023/07/03 03:32:57;;;;;;;15.23;5.20;;;16.50;99.90;;;;;;5027468;28;20490;-72
2023/07/03 03:35:23;;;;;;;19.10;5.43;;;16.50;99.90;;;;;;5051697;28;20044;-72
2023/07/03 03:37:48;;;;;;;15.25;5.38;;;16.40;99.90;;;;;;5055629;28;20036;-71
2023/07/03 03:40:14;;;;;;;19.00;5.90;;;16.40;99.90;;;;;;5053946;28;20842;-71
2023/07/03 03:42:40;;;;;;;14.48;5.05;;;16.40;99.90;;;;;;5033089;28;20127;-71
2023/07/03 03:45:06;;;;;;;19.42;6.15;;;16.40;99.90;;;;;;5052746;28;20407;-71
2023/07/03 03:47:33;;;;;;;18.17;5.70;;;16.30;99.90;;;;;;5038332;28;20040;-72
2023/07/03 03:49:58;;;;;;;16.02;5.50;;;16.30;99.90;;;;;;5052334;28;20850;-72
2023/07/03 03:52:24;;;;;;;18.55;5.75;;;16.30;99.90;;;;;;5053094;28;20049;-71
2023/07/03 03:54:50;;;;;;;16.15;6.15;;;16.20;99.90;;;;;;5048434;28;20043;-72
2023/07/03 03:57:15;;;;;;;15.88;5.72;;;16.30;99.90;;;;;;5055513;28;20040;-71
2023/07/03 03:59:41;;;;;;;18.10;5.75;;;16.30;99.90;;;;;;5054744;28;20124;-71
2023/07/03 04:02:08;;;;;;;19.75;6.45;;;16.30;99.90;;;;;;5037106;28;20094;-71
2023/07/03 04:04:34;;;;;;;17.95;5.68;;;16.20;99.90;;;;;;5050035;28;20048;-72
2023/07/03 04:07:00;;;;;;;17.92;5.82;;;16.30;99.90;;;;;;5031812;28;20044;-71
2023/07/03 04:09:26;;;;;;;23.20;6.43;;;16.30;99.90;;;;;;5052139;28;20740;-71
2023/07/03 04:11:51;;;;;;;19.83;6.43;;;16.20;99.90;;;;;;5027721;28;20059;-71
2023/07/03 04:14:17;;;;;;;17.45;5.60;;;16.20;99.90;;;;;;5043829;28;20441;-73
2023/07/03 04:16:44;;;;;;;17.13;5.90;;;16.20;99.90;;;;;;5032351;28;20372;-71
2023/07/03 04:19:10;;;;;;;16.38;5.18;;;16.20;99.90;;;;;;5052895;28;20053;-73
2023/07/03 04:21:36;;;;;;;16.30;5.22;;;16.20;99.90;;;;;;5049934;28;20049;-72
2023/07/03 04:24:01;;;;;;;14.02;4.63;;;16.20;99.90;;;;;;5054622;28;20046;-71
2023/07/03 04:26:27;;;;;;;19.20;6.03;;;16.20;99.90;;;;;;5024732;28;20048;-72
2023/07/03 04:28:53;;;;;;;17.10;5.43;;;16.20;99.90;;;;;;5041634;28;20044;-71
2023/07/03 04:31:18;;;;;;;16.77;5.85;;;16.20;99.90;;;;;;5026822;28;20484;-74
2023/07/03 04:33:45;;;;;;;15.82;5.50;;;16.30;99.90;;;;;;5052519;28;20430;-72
2023/07/03 04:36:12;;;;;;;15.75;5.50;;;16.20;99.90;;;;;;5043170;28;20052;-73
2023/07/03 04:38:39;;;;;;;20.05;5.60;;;16.30;99.90;;;;;;5031447;28;20056;-72
2023/07/03 04:41:05;;;;;;;18.85;5.75;;;16.30;99.90;;;;;;5043020;28;20048;-73
2023/07/03 04:43:31;;;;;;;16.65;5.43;;;16.30;99.90;;;;;;5047526;28;20044;-72
2023/07/03 04:46:02;;;;;;;16.95;5.45;;;16.40;99.90;;;;;;5051168;28;20453;-69
2023/07/03 04:48:29;;;;;;;13.13;5.75;;;16.40;99.90;;;;;;5032388;28;21758;-70
2023/07/03 04:50:55;;;;;;;14.60;5.40;;;16.40;99.90;;;;;;5053971;28;20503;-70
2023/07/03 04:53:23;;;;;;;18.85;6.00;;;16.40;99.90;;;;;;5054933;28;20040;-70
2023/07/03 04:55:50;;;;;;;18.08;5.75;;;16.40;99.90;;;;;;5044713;28;20079;-70
2023/07/03 04:58:19;;;;;;;14.00;5.70;;;16.40;99.90;;;;;;5022236;28;20068;-71
2023/07/03 05:00:46;;;;;;;16.07;4.70;;;16.50;99.90;;;;;;5053097;28;20143;-72
2023/07/03 05:03:12;;;;;;;13.32;4.82;;;16.50;99.90;;;;;;5040078;28;20457;-72
2023/07/03 05:05:38;;;;;;;16.13;5.10;;;16.60;99.90;;;;;;5024590;28;20041;-72
2023/07/03 05:08:04;;;;;;;14.75;4.70;;;16.60;99.90;;;;;;5046611;28;20539;-72
2023/07/03 05:10:30;;;;;;;15.65;5.40;;;16.70;99.90;;;;;;5042701;28;20395;-70
2023/07/03 05:12:55;;;;;;;13.80;4.57;;;16.70;99.90;;;;;;5023135;28;20094;-73
2023/07/03 05:15:24;;;;;;;13.75;4.38;;;16.80;99.90;;;;;;5050144;28;20045;-70
2023/07/03 05:17:52;;;;;;;12.90;4.72;;;16.80;99.90;;;;;;5045176;28;20049;-71
2023/07/03 05:20:19;;;;;;;12.95;4.65;;;16.90;99.90;;;;;;5026074;28;20136;-71
2023/07/03 05:22:45;;;;;;;17.65;4.78;;;16.90;99.90;;;;;;5042932;28;20044;-70
2023/07/03 05:25:13;;;;;;;14.82;4.70;;;17.00;99.90;;;;;;5022896;28;20102;-71
2023/07/03 05:27:39;;;;;;;14.05;4.57;;;17.00;99.90;;;;;;5044716;28;20136;-71
2023/07/03 05:30:07;;;;;;;14.70;4.57;;;17.10;99.90;;;;;;5049176;28;20719;-71
2023/07/03 05:32:33;;;;;;;14.63;4.97;;;17.10;99.90;;;;;;5033568;28;20572;-71
2023/07/03 05:35:01;;;;;;;13.73;4.72;;;17.10;99.90;;;;;;5035650;28;20041;-71
2023/07/03 05:37:27;;;;;;;16.27;4.70;;;17.20;99.90;;;;;;5025944;28;20663;-70
2023/07/03 05:39:53;;;;;;;14.95;5.10;;;17.20;99.90;;;;;;5040770;28;20048;-71
2023/07/03 05:42:19;;;;;;;17.88;4.97;;;17.20;99.90;;;;;;5027553;28;20068;-70
2023/07/03 05:44:46;;;;;;;15.60;5.22;;;17.20;99.90;;;;;;5045976;28;20523;-71
2023/07/03 05:47:13;;;;;;;16.23;5.15;;;17.30;99.90;;;;;;5047442;28;20049;-72
2023/07/03 05:49:39;;;;;;;;;;;17.30;99.90;;;;;;5031417;28;20506;-72
2023/07/03 05:52:05;;;;;;;15.60;4.97;;;17.30;99.90;;;;;;5025692;28;19934;-73
2023/07/03 05:54:31;;;;;;;15.82;5.05;;;17.40;99.90;;;;;;5043163;28;20068;-71
2023/07/03 05:56:57;;;;;;;16.92;5.15;;;17.50;99.90;;;;;;5027192;28;20052;-73
2023/07/03 05:59:26;;;;;;;14.40;5.00;;;17.50;99.90;;;;;;5027361;28;20099;-72
2023/07/03 06:01:56;;;;;;;16.58;4.68;;;17.50;99.90;;;;;;5028513;28;20303;-72
2023/07/03 06:04:22;;;;;;;16.40;4.53;;;17.50;99.90;;;;;;5050576;28;20071;-72
2023/07/03 06:06:53;;;;;;;13.43;4.13;;;17.60;99.90;;;;;;5017750;28;20055;-74
2023/07/03 06:09:18;;;;;;;14.07;3.70;;;17.60;99.90;;;;;;5024434;28;20048;-72
2023/07/03 06:11:45;;;;;;;13.43;3.70;;;17.60;99.90;;;;;;5050121;28;20094;-74
2023/07/03 06:14:18;;;;;;;15.43;3.67;;;17.50;99.90;;;;;;5040986;28;20045;-72
2023/07/03 06:16:45;;;;;;;12.75;4.20;;;17.50;99.90;;;;;;5053701;28;20049;-67
2023/07/03 06:19:12;;;;;;;13.10;3.65;;;17.50;99.90;;;;;;5050930;28;20556;-70
2023/07/03 06:21:38;;;;;;;13.93;4.07;;;17.60;99.90;;;;;;5046333;28;20222;-72
2023/07/03 06:24:05;;;;;;;14.80;3.97;;;17.60;99.90;;;;;;5052567;28;20040;-70
2023/07/03 06:26:33;;;;;;;14.23;3.70;;;17.60;99.90;;;;;;5036554;28;20053;-73
2023/07/03 06:29:05;;;;;;;10.23;3.10;;;17.60;99.90;;;;;;5036022;28;20049;-71
2023/07/03 06:31:30;;;;;;;13.25;3.88;;;17.50;99.90;;;;;;5051088;28;20056;-70
2023/07/03 06:33:56;;;;;;;14.80;3.03;;;17.50;99.90;;;;;;5056102;28;20052;-73
2023/07/03 06:36:22;;;;;;;11.23;3.00;;;17.40;99.90;;;;;;5038007;28;20056;-73
2023/07/03 06:38:55;;;;;;;15.15;3.40;;;17.40;99.90;;;;;;5036130;28;20174;-74
2023/07/03 06:41:22;;;;;;;12.55;3.25;;;17.40;99.90;;;;;;5036958;28;20055;-75
2023/07/03 06:43:48;;;;;;;10.90;3.25;;;17.50;99.90;;;;;;5056877;28;20502;-73
2023/07/03 06:46:14;;;;;;;11.65;3.63;;;17.40;99.90;;;;;;5027409;28;20105;-72
2023/07/03 06:48:41;;;;;;;10.77;3.20;;;17.40;99.90;;;;;;5055457;28;20036;-74
2023/07/03 06:51:09;;;;;;;11.32;3.10;;;17.40;99.90;;;;;;5053614;28;20056;-74
2023/07/03 06:53:34;;;;;;;13.15;3.58;;;17.50;99.90;;;;;;5047032;28;20131;-73
2023/07/03 06:56:02;;;;;;;9.73;2.92;;;17.60;99.90;;;;;;5040321;28;20585;-74
2023/07/03 06:58:28;;;;;;;;;;;17.60;99.90;;;;;;5035341;28;20057;-72
2023/07/03 07:00:54;;;;;;;12.07;3.55;;;17.60;99.90;;;;;;5037213;28;20272;-73
2023/07/03 07:03:20;;;;;;;14.15;3.55;;;17.70;99.90;;;;;;5032812;28;20047;-72
2023/07/03 07:05:46;;;;;;;13.32;3.33;;;17.80;99.90;;;;;;5036822;28;20040;-73
2023/07/03 07:08:18;;;;;;;10.38;3.40;;;17.80;99.90;;;;;;5034859;28;20053;-73
2023/07/03 07:10:44;;;;;;;14.25;3.60;;;17.80;99.90;;;;;;5030833;28;20052;-72
2023/07/03 07:13:11;;;;;;;16.92;3.60;;;17.80;99.90;;;;;;5012883;28;20052;-72
2023/07/03 07:15:38;;;;;;;15.85;3.25;;;17.80;99.90;;;;;;5036293;28;20045;-71
2023/07/03 07:18:06;;;;;;;14.80;3.70;;;17.90;99.90;;;;;;5021561;28;20113;-72
2023/07/03 07:20:39;;;;;;;9.80;2.80;;;18.10;99.90;;;;;;5035907;28;20037;-71
2023/07/03 07:23:07;;;;;;;10.25;2.50;;;18.20;99.90;;;;;;5031828;28;20075;-72
2023/07/03 07:25:33;;;;;;;11.35;3.20;;;18.20;99.90;;;;;;5028368;28;20040;-79
2023/07/03 07:27:59;;;;;;;8.70;3.00;;;18.20;99.90;;;;;;5034935;28;20045;-73
2023/07/03 07:30:25;;;;;;;10.85;3.28;;;18.20;99.90;;;;;;5028636;28;20460;-75
2023/07/03 07:32:51;;;;;;;18.63;3.50;;;18.20;99.90;;;;;;5010101;28;20052;-73
2023/07/03 07:35:17;;;;;;;11.00;2.88;;;18.20;99.90;;;;;;5013426;28;20131;-74
2023/07/03 07:37:43;;;;;;;12.32;2.75;;;18.20;99.90;;;;;;5036391;28;20049;-73
2023/07/03 07:40:10;;;;;;;10.18;2.28;;;18.30;99.90;;;;;;5036124;28;20068;-74
2023/07/03 07:42:36;;;;;;;9.40;2.70;;;18.40;99.90;;;;;;5016832;28;20131;-74
2023/07/03 07:45:03;;;;;;;10.15;2.72;;;18.50;99.90;;;;;;5014039;28;20045;-74
2023/07/03 07:47:29;;;;;;;12.75;2.88;;;18.50;99.90;;;;;;5010280;28;20078;-70
2023/07/03 07:49:55;;;;;;;11.02;2.80;;;18.30;99.90;;;;;;5027538;28;20108;-71
2023/07/03 07:52:23;;;;;;;11.18;3.10;;;18.30;99.90;;;;;;5028284;28;20658;-71
2023/07/03 07:54:54;;;;;;;9.52;2.42;;;18.20;99.90;;;;;;5034673;28;20212;-71
2023/07/03 07:57:19;;;;;;;12.55;3.38;;;18.20;99.90;;;;;;5017759;28;20132;-72
2023/07/03 07:59:45;;;;;;;10.80;2.97;;;18.20;99.90;;;;;;5029381;28;20821;-72
2023/07/03 08:02:11;;;;;;;13.05;2.95;;;18.20;99.90;;;;;;5029513;28;20049;-72
2023/07/03 08:04:36;;;;;;;10.38;2.85;;;18.10;99.90;;;;;;5022877;28;20037;-71
2023/07/03 08:07:02;;;;;;;9.95;2.80;;;18.10;99.90;;;;;;5029884;28;20547;-72
2023/07/03 08:09:28;;;;;;;12.80;3.25;;;18.00;99.90;;;;;;5033339;28;20048;-71
2023/07/03 08:11:53;;;;;;;9.77;2.90;;;18.10;99.90;;;;;;5032648;28;20060;-71
2023/07/03 08:14:19;;;;;;;11.50;3.00;;;18.10;99.90;;;;;;5035518;28;20174;-72
2023/07/03 08:16:45;;;;;;;12.85;3.42;;;18.10;99.90;;;;;;5030830;28;20124;-69
2023/07/03 08:19:10;;;;;;;9.15;2.92;;;18.30;99.90;;;;;;5034276;28;20120;-72
2023/07/03 08:21:36;;;;;;;13.80;2.85;;;18.40;99.90;;;;;;5030702;28;20037;-72
2023/07/03 08:24:02;;;;;;;14.48;3.15;;;18.60;99.90;;;;;;5030660;28;20045;-72
2023/07/03 08:26:28;;;;;;;9.38;2.97;;;18.70;99.90;;;;;;5036818;28;20377;-71
2023/07/03 08:28:53;;;;;;;11.02;3.13;;;18.70;99.90;;;;;;5035898;28;20060;-72
2023/07/03 08:31:19;;;;;;;10.77;2.90;;;18.80;99.90;;;;;;5035569;28;20040;-73
2023/07/03 08:33:45;;;;;;;11.38;3.30;;;18.90;99.90;;;;;;5026410;28;20045;-72
2023/07/03 08:36:10;;;;;;;9.18;2.78;;;19.00;99.90;;;;;;5024440;28;20501;-71
2023/07/03 08:38:36;;;;;;;11.77;2.97;;;19.10;99.90;;;;;;5033019;28;20392;-72
2023/07/03 08:41:02;;;;;;;9.30;2.45;;;19.00;99.90;;;;;;5039001;28;21769;-71
2023/07/03 08:43:41;;;;;;;7.72;2.42;;;19.00;99.90;;;;;;5036869;28;20056;-71
2023/07/03 08:46:14;;;;;;;11.02;2.58;;;18.90;99.90;;;;;;5034295;28;20049;-70
2023/07/03 08:48:41;;;;;;;8.50;2.30;;;19.00;99.90;;;;;;5033383;28;20056;-72
2023/07/03 08:51:12;;;;;;;13.18;3.03;;;19.00;99.90;;;;;;5028942;28;20095;-71
2023/07/03 08:53:40;;;;;;;10.63;3.15;;;19.00;99.90;;;;;;5030873;28;20047;-71
2023/07/03 08:56:17;;;;;;;14.85;3.38;;;19.00;99.90;;;;;;5032749;28;20137;-72
2023/07/03 08:58:49;;;;;;;10.40;2.72;;;19.00;99.90;;;;;;5034682;28;20467;-72
2023/07/03 09:01:33;;;;;;;10.25;2.97;;;19.00;99.90;;;;;;5049310;28;20087;-72
2023/07/03 09:04:29;;;;;;;8.70;2.35;;;19.00;99.90;;;;;;5031704;28;20036;-72
2023/07/03 09:07:18;;;;;;;12.57;3.13;;;19.10;99.90;;;;;;5048936;28;20136;-74
2023/07/03 09:10:00;;;;;;;13.45;2.63;;;19.30;99.90;;;;;;5034279;28;20051;-74
2023/07/03 09:12:34;;;;;;;11.23;2.58;;;19.50;99.90;;;;;;5046428;28;20048;-72
2023/07/03 09:15:11;;;;;;;14.77;2.60;;;19.70;99.90;;;;;;5050000;28;20044;-72
2023/07/03 09:17:38;;;;;;;10.40;2.55;;;19.70;99.90;;;;;;5028511;28;20890;-74
2023/07/03 09:20:06;;;;;;;21.40;3.33;;;19.80;99.90;;;;;;5026371;28;20063;-71
2023/07/03 09:22:35;;;;;;;;;;;20.00;99.90;;;;;;5033411;28;20044;-73
2023/07/03 09:25:04;;;;;;;8.73;2.58;;;20.10;99.90;;;;;;5049640;28;19920;-72
2023/07/03 09:27:30;;;;;;;10.88;3.20;;;20.10;99.90;;;;;;5053423;28;20790;-73
2023/07/03 09:30:07;;;;;;;9.27;2.38;;;20.00;99.90;;;;;;5050771;28;20119;-72
2023/07/03 09:32:33;;;;;;;9.73;2.72;;;19.80;99.80;;;;;;5032163;28;20055;-72
2023/07/03 09:35:02;;;;;;;10.23;2.50;;;19.60;99.90;;;;;;5037523;28;20040;-71
2023/07/03 09:37:27;;;;;;;12.25;2.42;;;19.40;99.90;;;;;;5046509;28;20071;-68
2023/07/03 09:39:54;;;;;;;10.35;2.80;;;19.30;99.90;;;;;;5048616;28;20132;-69
2023/07/03 09:42:21;;;;;;;13.02;2.80;;;19.20;99.90;;;;;;5039475;28;20045;-70
2023/07/03 09:44:48;;;;;;;10.25;2.53;;;19.20;99.90;;;;;;5049847;28;20127;-72
2023/07/03 09:47:22;;;;;;;6.88;2.45;;;19.30;99.90;;;;;;5032574;28;20052;-76
2023/07/03 09:49:48;;;;;;;10.50;2.47;;;19.40;99.90;;;;;;5048096;28;20572;-71
2023/07/03 09:52:14;;;;;;;9.05;2.80;;;19.50;99.90;;;;;;5043545;28;20057;-73
2023/07/03 09:54:45;;;;;;;9.65;2.22;;;19.40;99.70;;;;;;5034761;28;20056;-72
2023/07/03 09:57:25;;;;;;;8.75;2.70;;;19.40;99.50;;;;;;5053422;28;20715;-71
2023/07/03 09:59:53;;;;;;;10.80;3.00;;;19.30;99.40;;;;;;5047287;28;20125;-71
2023/07/03 10:02:22;;;;;;;9.88;2.70;;;19.20;99.60;;;;;;5053154;28;20130;-71
2023/07/03 10:04:48;;;;;;;10.75;2.42;;;19.00;99.20;;;;;;5035831;28;20043;-70
2023/07/03 10:07:16;;;;;;;10.65;2.40;;;19.00;99.30;;;;;;5035023;28;20068;-70
2023/07/03 10:09:43;;;;;;;11.68;2.72;;;18.80;99.60;;;;;;5044749;28;20491;-70
2023/07/03 10:12:20;;;;;;;9.25;2.70;;;18.80;99.90;;;;;;5045053;28;20114;-70
2023/07/03 10:14:48;;;;;;;12.43;2.33;;;18.90;99.90;;;;;;5034626;28;20068;-70
2023/07/03 10:17:17;;;;;;;12.23;2.58;;;18.90;99.90;;;;;;5047166;28;20198;-71
2023/07/03 10:19:51;;;;;;;9.07;2.58;;;18.90;99.90;;;;;;5032065;28;20053;-71
2023/07/03 10:22:18;;;;;;;11.02;2.50;;;19.00;99.90;;;;;;5048917;28;20492;-71
2023/07/03 10:24:45;;;;;;;9.88;2.50;;;19.10;99.90;;;;;;5034569;28;20044;-72
2023/07/03 10:27:13;;;;;;;;;;;19.40;99.90;;;;;;5032081;28;20051;-72
2023/07/03 10:29:44;;;;;;;9.45;2.13;;;19.70;98.60;;;;;;5038365;28;20019;-71
2023/07/03 10:32:13;;;;;;;7.93;2.10;;;19.80;98.90;;;;;;5038177;28;21971;-71
2023/07/03 10:34:48;;;;;;;7.97;2.10;;;19.90;97.80;;;;;;5056733;28;20080;-70
2023/07/03 10:37:18;;;;;;;13.07;2.50;;;19.80;97.40;;;;;;5034628;28;20459;-71
2023/07/03 10:39:57;;;;;;;10.40;3.05;;;19.80;97.10;;;;;;5022869;28;20505;-72
2023/07/03 10:42:30;;;;;;;8.60;2.30;;;19.60;97.60;;;;;;5033557;28;20203;-72
2023/07/03 10:45:07;;;;;;;12.02;2.72;;;19.70;97.90;;;;;;5043200;28;20049;-71
2023/07/03 10:47:47;;;;;;;7.65;2.33;;;19.70;98.00;;;;;;5037092;28;20132;-71
2023/07/03 10:50:14;;;;;;;7.43;1.75;;;19.70;96.80;;;;;;5055720;28;20410;-70
2023/07/03 10:52:52;;;;;;;11.23;2.15;;;19.70;96.70;;;;;;5037634;28;20049;-70
2023/07/03 10:55:40;;;;;;;6.65;2.30;;;19.70;96.50;;;;;;5035823;28;21138;-69
2023/07/03 10:58:23;;;;;;;6.82;1.70;;;19.70;96.50;;;;;;5034326;28;20048;-71
2023/07/03 11:01:01;;;;;;;6.63;1.67;;;19.70;95.60;;;;;;5055783;28;20060;-68
2023/07/03 11:03:26;;;;;;;10.23;1.90;;;19.60;94.90;;;;;;5045612;28;20087;-68
2023/07/03 11:06:01;;;;;;;5.93;1.55;;;19.60;95.20;;;;;;5038185;28;20048;-67
2023/07/03 11:08:30;;;;;;;8.15;1.70;;;19.70;95.60;;;;;;5059510;28;20048;-71
2023/07/03 11:10:56;;;;;;;6.78;1.80;;;19.80;95.50;;;;;;5032545;28;20483;-69
2023/07/03 11:13:41;;;;;;;7.53;1.80;;;19.90;95.60;;;;;;5043647;28;20048;-69
2023/07/03 11:16:13;;;;;;;6.30;1.73;;;20.00;95.70;;;;;;5048399;28;20503;-71
2023/07/03 11:18:42;;;;;;;5.88;1.30;;;20.10;95.50;;;;;;5027587;28;20052;-73
2023/07/03 11:21:19;;;;;;;5.70;1.42;;;20.10;94.00;;;;;;5051314;28;20047;-71
2023/07/03 11:23:54;;;;;;;7.03;1.70;;;20.10;92.10;;;;;;5051812;28;20045;-71
2023/07/03 11:26:47;;;;;;;6.50;1.60;;;19.90;92.30;;;;;;5054594;28;20051;-71
2023/07/03 11:29:13;;;;;;;6.40;1.80;;;19.90;92.30;;;;;;5051832;28;20967;-70
2023/07/03 11:31:42;;;;;;;6.88;1.70;;;19.80;92.30;;;;;;5051283;28;20048;-72
2023/07/03 11:34:12;;;;;;;7.43;1.63;;;19.70;92.30;;;;;;5050517;28;21161;-70
2023/07/03 11:36:47;;;;;;;7.13;1.65;;;19.70;92.60;;;;;;5029538;28;20036;-72
2023/07/03 11:39:24;;;;;;;7.60;1.80;;;19.70;92.90;;;;;;5054524;28;20045;-71
2023/07/03 11:42:01;;;;;;;6.88;1.73;;;20.00;93.70;;;;;;5050769;28;20059;-73
2023/07/03 11:44:27;;;;;;;8.85;1.90;;;20.30;92.40;;;;;;5051081;28;20399;-72
2023/07/03 11:47:22;;;;;;;9.68;2.03;;;20.40;92.00;;;;;;5052896;28;20087;-71
2023/07/03 11:50:03;;;;;;;6.55;1.60;;;20.60;91.50;;;;;;5034913;28;20051;-71
2023/07/03 11:52:31;;;;;;;12.73;1.98;;;20.80;92.20;;;;;;5035443;28;20075;-73
2023/07/03 11:54:58;;;;;;;7.63;1.67;;;20.90;92.10;;;;;;5050245;28;20113;-73
2023/07/03 11:57:36;;;;;;;;;;;20.70;91.50;;;;;;5052550;28;20616;-71
2023/07/03 12:00:27;;;;;;;8.25;1.60;;;20.60;90.40;;;;;;5045122;28;19935;-76
2023/07/03 12:03:04;;;;;;;6.43;1.92;;;20.30;91.20;;;;;;5027318;28;20060;-71
2023/07/03 12:05:42;;;;;;;4.90;1.40;;;20.10;91.30;;;;;;5045101;28;20127;-75
2023/07/03 12:08:36;;;;;;;8.27;1.80;;;19.80;92.00;;;;;;5033720;28;20471;-75
2023/07/03 12:11:03;;;;;;;5.38;2.05;;;19.70;92.50;;;;;;5027266;28;20059;-75
2023/07/03 12:13:41;;;;;;;;;;;19.50;93.10;;;;;;5053508;28;20063;-77
2023/07/03 12:16:20;;;;;;;7.35;1.85;;;19.40;93.70;;;;;;5051864;28;19926;-79
2023/07/03 12:18:56;;;;;;;6.40;1.70;;;19.30;93.30;;;;;;5057649;28;20080;-77
2023/07/03 12:21:21;;;;;;;7.55;1.63;;;19.40;94.00;;;;;;5046616;28;20096;-76
2023/07/03 12:23:48;;;;;;;5.35;1.60;;;19.60;94.30;;;;;;5034392;28;21800;-75
2023/07/03 12:26:16;;;;;;;5.90;1.85;;;19.80;93.90;;;;;;5030974;28;20084;-74
2023/07/03 12:28:42;;;;;;;12.00;2.00;;;20.00;93.40;;;;;;5026280;28;20059;-75
2023/07/03 12:31:20;;;;;;;8.85;2.13;;;20.10;92.30;;;;;;5056807;28;20087;-76
2023/07/03 12:34:00;;;;;;;6.93;1.70;;;20.20;92.20;;;;;;5032733;28;20383;-76
2023/07/03 12:36:31;;;;;;;7.63;1.52;;;20.10;92.00;;;;;;5031299;28;20044;-76
2023/07/03 12:38:59;;;;;;;5.85;1.70;;;20.00;92.40;;;;;;5050507;28;20055;-79
2023/07/03 12:41:33;;;;;;;5.35;1.50;;;20.00;92.70;;;;;;5045002;28;20047;-76
2023/07/03 12:44:01;;;;;;;5.15;1.60;;;20.00;92.90;;;;;;5044208;28;20050;-76
2023/07/03 12:46:34;;;;;;;9.05;2.25;;;20.00;92.40;;;;;;5027700;28;20089;-75
2023/07/03 12:49:15;;;;;;;7.80;1.55;;;20.00;92.30;;;;;;5030040;28;20048;-75